sensor_id;sensor_type;location;lat;lon;timestamp;pressure;altitude;pressure_sealevel;temperature;humidity
21240;BME280;10778;48.962;9.018;2022-10-17T00:02:00;99604.75;;;10.93;100.00
21240;BME280;10778;48.962;9.018;2022-10-17T00:04:26;99598.88;;;10.89;100.00
21240;BME280;10778;48.962;9.018;2022-10-17T00:06:52;99602.13;;;10.93;100.00
21240;BME280;10778;48.962;9.018;2022-10-17T00:09:18;99601.53;;;10.89;100.00
21240;BME280;10778;48.962;9.018;2022-10-17T00:11:44;99598.78;;;10.91;100.00
21240;BME280;10778;48.962;9.018;2022-10-17T00:14:10;99603.34;;;10.89;100.00
21240;BME280;10778;48.962;9.018;2022-10-17T00:16:36;99609.63;;;10.76;100.00
21240;BME280;10778;48.962;9.018;2022-10-17T00:19:04;99613.56;;;10.71;100.00
21240;BME280;10778;48.962;9.018;2022-10-17T00:21:30;99607.03;;;10.65;100.00
21240;BME280;10778;48.962;9.018;2022-10-17T00:23:59;99605.72;;;10.59;100.00
21240;BME280;10778;48.962;9.018;2022-10-17T00:26:26;99613.75;;;10.58;100.00
21240;BME280;10778;48.962;9.018;2022-10-17T00:28:54;99613.75;;;10.58;100.00
21240;BME280;10778;48.962;9.018;2022-10-17T00:31:21;99607.16;;;10.63;100.00
21240;BME280;10778;48.962;9.018;2022-10-17T00:33:49;99610.06;;;10.81;100.00
21240;BME280;10778;48.962;9.018;2022-10-17T00:36:18;99612.09;;;10.78;100.00
21240;BME280;10778;48.962;9.018;2022-10-17T00:38:46;99610.31;;;10.78;100.00
21240;BME280;10778;48.962;9.018;2022-10-17T00:41:16;99619.44;;;10.74;100.00
21240;BME280;10778;48.962;9.018;2022-10-17T00:46:30;99612.09;;;10.57;100.00
21240;BME280;10778;48.962;9.018;2022-10-17T00:48:59;99609.81;;;10.52;100.00
21240;BME280;10778;48.962;9.018;2022-10-17T00:51:42;99614.63;;;10.47;100.00
21240;BME280;10778;48.962;9.018;2022-10-17T00:54:13;99612.81;;;10.47;100.00
21240;BME280;10778;48.962;9.018;2022-10-17T00:56:39;99615.59;;;10.46;100.00
21240;BME280;10778;48.962;9.018;2022-10-17T00:59:10;99617.97;;;10.37;100.00
21240;BME280;10778;48.962;9.018;2022-10-17T01:01:40;99624.19;;;10.36;100.00
21240;BME280;10778;48.962;9.018;2022-10-17T01:04:06;99621.66;;;10.35;100.00
21240;BME280;10778;48.962;9.018;2022-10-17T01:06:32;99626.34;;;10.31;100.00
21240;BME280;10778;48.962;9.018;2022-10-17T01:08:58;99624.81;;;10.29;100.00
21240;BME280;10778;48.962;9.018;2022-10-17T01:14:57;99632.22;;;10.23;100.00
21240;BME280;10778;48.962;9.018;2022-10-17T01:23:37;99623.63;;;10.21;100.00
21240;BME280;10778;48.962;9.018;2022-10-17T01:40:51;99628.19;;;10.19;100.00
21240;BME280;10778;48.962;9.018;2022-10-17T01:43:05;99631.53;;;10.10;100.00
21240;BME280;10778;48.962;9.018;2022-10-17T01:45:37;99630.34;;;10.03;100.00
21240;BME280;10778;48.962;9.018;2022-10-17T01:48:13;99629.75;;;9.99;100.00
21240;BME280;10778;48.962;9.018;2022-10-17T01:50:45;99620.81;;;10.02;100.00
21240;BME280;10778;48.962;9.018;2022-10-17T01:53:19;99629.88;;;9.98;100.00
21240;BME280;10778;48.962;9.018;2022-10-17T01:55:48;99626.41;;;9.97;100.00
21240;BME280;10778;48.962;9.018;2022-10-17T01:58:22;99615.06;;;9.96;100.00
21240;BME280;10778;48.962;9.018;2022-10-17T02:00:51;99620.31;;;9.96;100.00
21240;BME280;10778;48.962;9.018;2022-10-17T02:03:20;99614.81;;;10.00;100.00
21240;BME280;10778;48.962;9.018;2022-10-17T02:05:47;99614.34;;;9.94;100.00
21240;BME280;10778;48.962;9.018;2022-10-17T02:08:24;99613.63;;;9.92;100.00
21240;BME280;10778;48.962;9.018;2022-10-17T02:10:55;99614.47;;;9.93;100.00
21240;BME280;10778;48.962;9.018;2022-10-17T02:21:34;99622.00;;;9.75;100.00
21240;BME280;10778;48.962;9.018;2022-10-17T02:24:23;99627.00;;;9.66;100.00
21240;BME280;10778;48.962;9.018;2022-10-17T02:26:57;99618.63;;;9.84;100.00
21240;BME280;10778;48.962;9.018;2022-10-17T02:29:33;99613.78;;;9.79;100.00
21240;BME280;10778;48.962;9.018;2022-10-17T02:32:08;99629.53;;;9.79;100.00
21240;BME280;10778;48.962;9.018;2022-10-17T02:34:46;99627.88;;;9.78;100.00
21240;BME280;10778;48.962;9.018;2022-10-17T02:37:18;99615.91;;;9.74;100.00
21240;BME280;10778;48.962;9.018;2022-10-17T02:39:47;99629.28;;;9.71;100.00
21240;BME280;10778;48.962;9.018;2022-10-17T02:42:16;99632.16;;;9.68;100.00
21240;BME280;10778;48.962;9.018;2022-10-17T02:44:44;99629.63;;;9.66;100.00
21240;BME280;10778;48.962;9.018;2022-10-17T02:47:21;99632.50;;;9.63;100.00
21240;BME280;10778;48.962;9.018;2022-10-17T02:49:53;99633.81;;;9.58;100.00
21240;BME280;10778;48.962;9.018;2022-10-17T02:55:51;99634.75;;;9.57;100.00
21240;BME280;10778;48.962;9.018;2022-10-17T02:58:10;99631.41;;;9.54;100.00
21240;BME280;10778;48.962;9.018;2022-10-17T03:00:40;99635.97;;;9.52;100.00
21240;BME280;10778;48.962;9.018;2022-10-17T03:03:22;99632.50;;;9.52;100.00
21240;BME280;10778;48.962;9.018;2022-10-17T03:05:50;99632.28;;;9.55;100.00
21240;BME280;10778;48.962;9.018;2022-10-17T03:08:17;99639.53;;;9.51;100.00
21240;BME280;10778;48.962;9.018;2022-10-17T03:10:44;99645.38;;;9.44;100.00
21240;BME280;10778;48.962;9.018;2022-10-17T03:13:10;99640.03;;;9.45;100.00
21240;BME280;10778;48.962;9.018;2022-10-17T03:15:39;99633.19;;;9.43;100.00
21240;BME280;10778;48.962;9.018;2022-10-17T03:18:05;99636.19;;;9.38;100.00
21240;BME280;10778;48.962;9.018;2022-10-17T03:20:32;99634.50;;;9.37;100.00
21240;BME280;10778;48.962;9.018;2022-10-17T03:22:58;99641.81;;;9.33;100.00
21240;BME280;10778;48.962;9.018;2022-10-17T03:25:24;99644.44;;;9.33;100.00
21240;BME280;10778;48.962;9.018;2022-10-17T03:27:51;99644.53;;;9.32;100.00
21240;BME280;10778;48.962;9.018;2022-10-17T03:30:18;99648.34;;;9.28;100.00
21240;BME280;10778;48.962;9.018;2022-10-17T03:32:44;99645.72;;;9.28;100.00
21240;BME280;10778;48.962;9.018;2022-10-17T03:35:10;99641.19;;;9.30;100.00
21240;BME280;10778;48.962;9.018;2022-10-17T03:37:37;99645.97;;;9.24;100.00
21240;BME280;10778;48.962;9.018;2022-10-17T03:40:04;99642.97;;;9.29;100.00
21240;BME280;10778;48.962;9.018;2022-10-17T03:42:30;99652.88;;;9.25;100.00
21240;BME280;10778;48.962;9.018;2022-10-17T03:44:57;99640.34;;;9.29;100.00
21240;BME280;10778;48.962;9.018;2022-10-17T03:47:23;99643.69;;;9.31;100.00
21240;BME280;10778;48.962;9.018;2022-10-17T03:49:50;99646.06;;;9.23;100.00
21240;BME280;10778;48.962;9.018;2022-10-17T03:52:19;99644.50;;;9.20;100.00
21240;BME280;10778;48.962;9.018;2022-10-17T03:54:45;99647.03;;;9.22;100.00
21240;BME280;10778;48.962;9.018;2022-10-17T03:57:11;99657.97;;;9.16;100.00
21240;BME280;10778;48.962;9.018;2022-10-17T03:59:37;99648.78;;;9.10;100.00
21240;BME280;10778;48.962;9.018;2022-10-17T04:02:09;99655.31;;;9.04;100.00
21240;BME280;10778;48.962;9.018;2022-10-17T04:04:35;99659.84;;;9.02;100.00
21240;BME280;10778;48.962;9.018;2022-10-17T04:07:02;99667.50;;;9.05;100.00
21240;BME280;10778;48.962;9.018;2022-10-17T04:09:28;99669.41;;;9.03;100.00
21240;BME280;10778;48.962;9.018;2022-10-17T04:12:02;99671.88;;;9.05;100.00
21240;BME280;10778;48.962;9.018;2022-10-17T04:14:31;99676.09;;;9.07;100.00
21240;BME280;10778;48.962;9.018;2022-10-17T04:16:57;99684.06;;;9.06;100.00
21240;BME280;10778;48.962;9.018;2022-10-17T04:19:24;99682.91;;;9.10;100.00
21240;BME280;10778;48.962;9.018;2022-10-17T04:21:52;99688.75;;;9.14;100.00
21240;BME280;10778;48.962;9.018;2022-10-17T04:24:19;99692.47;;;9.11;100.00
21240;BME280;10778;48.962;9.018;2022-10-17T04:26:48;99687.06;;;9.01;100.00
21240;BME280;10778;48.962;9.018;2022-10-17T04:29:16;99693.03;;;9.03;100.00
21240;BME280;10778;48.962;9.018;2022-10-17T04:31:43;99696.47;;;9.04;100.00
21240;BME280;10778;48.962;9.018;2022-10-17T04:34:24;99695.75;;;9.02;100.00
21240;BME280;10778;48.962;9.018;2022-10-17T04:36:50;99693.13;;;9.02;100.00
21240;BME280;10778;48.962;9.018;2022-10-17T04:39:17;99693.69;;;8.94;100.00
21240;BME280;10778;48.962;9.018;2022-10-17T04:41:44;99696.69;;;9.01;100.00
21240;BME280;10778;48.962;9.018;2022-10-17T04:44:11;99702.06;;;8.99;100.00
21240;BME280;10778;48.962;9.018;2022-10-17T04:46:41;99701.31;;;8.97;100.00
21240;BME280;10778;48.962;9.018;2022-10-17T04:49:07;99699.06;;;8.92;100.00
21240;BME280;10778;48.962;9.018;2022-10-17T04:51:34;99695.81;;;8.89;100.00
21240;BME280;10778;48.962;9.018;2022-10-17T04:54:17;99691.38;;;8.89;100.00
21240;BME280;10778;48.962;9.018;2022-10-17T04:56:46;99699.63;;;8.85;100.00
21240;BME280;10778;48.962;9.018;2022-10-17T04:59:13;99694.56;;;8.81;100.00
21240;BME280;10778;48.962;9.018;2022-10-17T05:01:42;99701.72;;;8.79;100.00
21240;BME280;10778;48.962;9.018;2022-10-17T05:04:08;99699.56;;;8.73;100.00
21240;BME280;10778;48.962;9.018;2022-10-17T05:06:35;99705.34;;;8.65;100.00
21240;BME280;10778;48.962;9.018;2022-10-17T05:09:15;99702.50;;;8.68;100.00
21240;BME280;10778;48.962;9.018;2022-10-17T05:11:42;99695.50;;;8.69;100.00
21240;BME280;10778;48.962;9.018;2022-10-17T05:14:09;99698.72;;;8.73;100.00
21240;BME280;10778;48.962;9.018;2022-10-17T05:16:35;99698.06;;;8.82;100.00
21240;BME280;10778;48.962;9.018;2022-10-17T05:19:01;99697.09;;;8.83;100.00
21240;BME280;10778;48.962;9.018;2022-10-17T05:21:34;99709.34;;;9.07;100.00
21240;BME280;10778;48.962;9.018;2022-10-17T05:24:07;99697.09;;;9.43;100.00
21240;BME280;10778;48.962;9.018;2022-10-17T05:26:34;99693.75;;;9.52;100.00
21240;BME280;10778;48.962;9.018;2022-10-17T05:29:00;99694.72;;;9.63;100.00
21240;BME280;10778;48.962;9.018;2022-10-17T05:31:32;99693.34;;;9.93;100.00
21240;BME280;10778;48.962;9.018;2022-10-17T05:34:02;99699.78;;;10.00;100.00
21240;BME280;10778;48.962;9.018;2022-10-17T05:36:30;99697.38;;;10.20;100.00
21240;BME280;10778;48.962;9.018;2022-10-17T05:38:58;99698.09;;;10.22;100.00
21240;BME280;10778;48.962;9.018;2022-10-17T05:41:24;99697.59;;;10.39;100.00
21240;BME280;10778;48.962;9.018;2022-10-17T05:43:50;99706.56;;;10.25;100.00
21240;BME280;10778;48.962;9.018;2022-10-17T05:46:20;99700.75;;;10.10;100.00
21240;BME280;10778;48.962;9.018;2022-10-17T05:48:46;99707.88;;;10.08;100.00
21240;BME280;10778;48.962;9.018;2022-10-17T05:51:12;99711.25;;;9.99;100.00
21240;BME280;10778;48.962;9.018;2022-10-17T05:53:40;99696.44;;;9.98;100.00
21240;BME280;10778;48.962;9.018;2022-10-17T05:56:12;99705.72;;;10.25;100.00
21240;BME280;10778;48.962;9.018;2022-10-17T05:58:41;99712.66;;;9.92;100.00
21240;BME280;10778;48.962;9.018;2022-10-17T06:01:15;99714.91;;;9.62;100.00
21240;BME280;10778;48.962;9.018;2022-10-17T06:03:41;99720.72;;;9.54;100.00
21240;BME280;10778;48.962;9.018;2022-10-17T06:06:11;99724.78;;;9.47;100.00
21240;BME280;10778;48.962;9.018;2022-10-17T06:08:41;99723.69;;;9.38;100.00
21240;BME280;10778;48.962;9.018;2022-10-17T06:11:12;99722.34;;;9.33;100.00
21240;BME280;10778;48.962;9.018;2022-10-17T06:13:39;99729.03;;;9.37;100.00
21240;BME280;10778;48.962;9.018;2022-10-17T06:16:11;99722.84;;;9.38;100.00
21240;BME280;10778;48.962;9.018;2022-10-17T06:18:37;99735.72;;;9.41;100.00
21240;BME280;10778;48.962;9.018;2022-10-17T06:21:06;99730.94;;;9.35;100.00
21240;BME280;10778;48.962;9.018;2022-10-17T06:23:34;99733.09;;;9.41;100.00
21240;BME280;10778;48.962;9.018;2022-10-17T06:26:08;99740.88;;;9.43;100.00
21240;BME280;10778;48.962;9.018;2022-10-17T06:28:35;99747.00;;;9.43;100.00
21240;BME280;10778;48.962;9.018;2022-10-17T06:31:11;99748.09;;;9.52;100.00
21240;BME280;10778;48.962;9.018;2022-10-17T06:33:38;99759.75;;;9.48;100.00
21240;BME280;10778;48.962;9.018;2022-10-17T06:36:06;99756.56;;;9.56;100.00
21240;BME280;10778;48.962;9.018;2022-10-17T06:38:34;99758.94;;;10.29;100.00
21240;BME280;10778;48.962;9.018;2022-10-17T06:41:08;99751.28;;;11.36;100.00
21240;BME280;10778;48.962;9.018;2022-10-17T06:43:39;99747.44;;;13.35;97.94
21240;BME280;10778;48.962;9.018;2022-10-17T06:46:34;99742.50;;;15.83;84.31
21240;BME280;10778;48.962;9.018;2022-10-17T06:49:06;99746.34;;;17.17;78.04
21240;BME280;10778;48.962;9.018;2022-10-17T06:51:55;99759.13;;;17.05;76.51
21240;BME280;10778;48.962;9.018;2022-10-17T06:54:29;99762.56;;;18.05;74.25
21240;BME280;10778;48.962;9.018;2022-10-17T06:57:09;99759.81;;;17.57;74.68
21240;BME280;10778;48.962;9.018;2022-10-17T06:59:58;99759.06;;;18.13;71.33
21240;BME280;10778;48.962;9.018;2022-10-17T07:02:31;99757.81;;;19.27;70.71
21240;BME280;10778;48.962;9.018;2022-10-17T07:04:59;99766.81;;;18.71;69.72
21240;BME280;10778;48.962;9.018;2022-10-17T07:07:25;99769.53;;;18.55;71.31
21240;BME280;10778;48.962;9.018;2022-10-17T07:09:52;99764.19;;;19.65;67.84
21240;BME280;10778;48.962;9.018;2022-10-17T07:12:19;99764.44;;;19.93;66.73
21240;BME280;10778;48.962;9.018;2022-10-17T07:14:45;99761.97;;;21.10;64.57
21240;BME280;10778;48.962;9.018;2022-10-17T07:17:12;99758.69;;;20.93;64.76
21240;BME280;10778;48.962;9.018;2022-10-17T07:19:38;99761.94;;;20.52;66.04
21240;BME280;10778;48.962;9.018;2022-10-17T07:22:06;99758.25;;;21.33;65.55
21240;BME280;10778;48.962;9.018;2022-10-17T07:24:32;99772.34;;;20.46;68.05
21240;BME280;10778;48.962;9.018;2022-10-17T07:27:07;99778.63;;;20.24;67.34
21240;BME280;10778;48.962;9.018;2022-10-17T07:29:33;99780.75;;;20.13;68.93
21240;BME280;10778;48.962;9.018;2022-10-17T07:32:06;99773.75;;;20.79;68.54
21240;BME280;10778;48.962;9.018;2022-10-17T07:34:34;99775.66;;;21.66;66.22
21240;BME280;10778;48.962;9.018;2022-10-17T07:37:01;99780.25;;;21.28;66.59
21240;BME280;10778;48.962;9.018;2022-10-17T07:39:27;99772.06;;;22.15;66.41
21240;BME280;10778;48.962;9.018;2022-10-17T07:41:54;99770.03;;;22.17;64.95
21240;BME280;10778;48.962;9.018;2022-10-17T07:44:21;99777.63;;;22.49;63.81
21240;BME280;10778;48.962;9.018;2022-10-17T07:46:50;99781.19;;;21.64;66.87
21240;BME280;10778;48.962;9.018;2022-10-17T07:49:17;99787.75;;;20.96;69.57
21240;BME280;10778;48.962;9.018;2022-10-17T07:51:43;99783.19;;;21.12;70.07
21240;BME280;10778;48.962;9.018;2022-10-17T07:54:09;99782.81;;;21.15;70.61
21240;BME280;10778;48.962;9.018;2022-10-17T07:56:35;99777.63;;;21.35;69.04
21240;BME280;10778;48.962;9.018;2022-10-17T07:59:01;99782.69;;;21.23;70.23
21240;BME280;10778;48.962;9.018;2022-10-17T08:01:27;99778.72;;;21.19;69.45
21240;BME280;10778;48.962;9.018;2022-10-17T08:03:53;99772.34;;;21.42;69.62
21240;BME280;10778;48.962;9.018;2022-10-17T08:06:19;99779.09;;;21.38;70.65
21240;BME280;10778;48.962;9.018;2022-10-17T08:08:45;99775.28;;;21.69;69.36
21240;BME280;10778;48.962;9.018;2022-10-17T08:11:13;99772.59;;;21.69;69.59
21240;BME280;10778;48.962;9.018;2022-10-17T08:13:40;99785.66;;;21.35;71.57
21240;BME280;10778;48.962;9.018;2022-10-17T08:16:08;99785.44;;;20.93;73.37
21240;BME280;10778;48.962;9.018;2022-10-17T08:18:35;99802.69;;;19.70;76.99
21240;BME280;10778;48.962;9.018;2022-10-17T08:21:04;99797.31;;;20.24;75.59
21240;BME280;10778;48.962;9.018;2022-10-17T08:23:34;99782.88;;;21.65;72.84
21240;BME280;10778;48.962;9.018;2022-10-17T08:26:03;99786.53;;;21.64;70.91
21240;BME280;10778;48.962;9.018;2022-10-17T08:28:29;99786.44;;;22.01;71.40
21240;BME280;10778;48.962;9.018;2022-10-17T08:31:10;99786.03;;;22.04;70.63
21240;BME280;10778;48.962;9.018;2022-10-17T08:33:37;99785.22;;;22.10;70.82
21240;BME280;10778;48.962;9.018;2022-10-17T08:36:04;99786.00;;;22.81;68.80
21240;BME280;10778;48.962;9.018;2022-10-17T08:38:31;99778.41;;;24.26;64.31
21240;BME280;10778;48.962;9.018;2022-10-17T08:41:00;99786.94;;;24.03;63.86
21240;BME280;10778;48.962;9.018;2022-10-17T08:46:02;99792.44;;;23.00;66.80
21240;BME280;10778;48.962;9.018;2022-10-17T08:48:39;99799.34;;;22.26;71.49
21240;BME280;10778;48.962;9.018;2022-10-17T08:58:43;99792.16;;;22.33;71.25
21240;BME280;10778;48.962;9.018;2022-10-17T09:01:40;99788.16;;;23.20;68.90
21240;BME280;10778;48.962;9.018;2022-10-17T09:04:33;99790.88;;;23.67;67.95
21240;BME280;10778;48.962;9.018;2022-10-17T09:07:12;99785.00;;;24.31;66.46
21240;BME280;10778;48.962;9.018;2022-10-17T09:18:15;99779.69;;;23.97;67.57
21240;BME280;10778;48.962;9.018;2022-10-17T09:20:48;99778.66;;;23.91;66.36
21240;BME280;10778;48.962;9.018;2022-10-17T09:23:19;99785.41;;;22.99;69.55
21240;BME280;10778;48.962;9.018;2022-10-17T09:25:49;99783.25;;;23.77;67.14
21240;BME280;10778;48.962;9.018;2022-10-17T09:30:56;99771.53;;;24.37;65.40
21240;BME280;10778;48.962;9.018;2022-10-17T09:33:31;99767.50;;;24.67;63.85
21240;BME280;10778;48.962;9.018;2022-10-17T09:35:59;99761.34;;;24.98;63.63
21240;BME280;10778;48.962;9.018;2022-10-17T09:38:35;99761.38;;;25.24;63.70
21240;BME280;10778;48.962;9.018;2022-10-17T09:41:02;99768.00;;;25.21;64.47
21240;BME280;10778;48.962;9.018;2022-10-17T09:43:28;99753.16;;;25.44;62.36
21240;BME280;10778;48.962;9.018;2022-10-17T09:46:16;99758.38;;;26.27;60.71
21240;BME280;10778;48.962;9.018;2022-10-17T09:48:54;99759.25;;;25.83;61.49
21240;BME280;10778;48.962;9.018;2022-10-17T09:51:22;99762.91;;;25.13;64.20
21240;BME280;10778;48.962;9.018;2022-10-17T09:53:54;99754.41;;;25.41;62.11
21240;BME280;10778;48.962;9.018;2022-10-17T09:56:21;99764.47;;;24.95;64.22
21240;BME280;10778;48.962;9.018;2022-10-17T09:58:55;99756.84;;;25.50;64.06
21240;BME280;10778;48.962;9.018;2022-10-17T10:01:24;99755.56;;;24.95;64.83
21240;BME280;10778;48.962;9.018;2022-10-17T10:04:09;99757.94;;;25.17;65.58
21240;BME280;10778;48.962;9.018;2022-10-17T10:06:36;99766.16;;;25.54;64.76
21240;BME280;10778;48.962;9.018;2022-10-17T10:09:03;99765.59;;;25.13;64.54
21240;BME280;10778;48.962;9.018;2022-10-17T10:11:51;99776.72;;;24.91;66.27
21240;BME280;10778;48.962;9.018;2022-10-17T10:14:22;99772.63;;;24.75;66.94
21240;BME280;10778;48.962;9.018;2022-10-17T10:16:50;99777.69;;;24.58;66.48
21240;BME280;10778;48.962;9.018;2022-10-17T10:19:48;99775.03;;;24.51;67.71
21240;BME280;10778;48.962;9.018;2022-10-17T10:22:17;99780.28;;;25.17;65.12
21240;BME280;10778;48.962;9.018;2022-10-17T10:24:44;99771.47;;;25.03;66.08
21240;BME280;10778;48.962;9.018;2022-10-17T10:27:17;99768.13;;;24.69;66.33
21240;BME280;10778;48.962;9.018;2022-10-17T10:29:50;99770.38;;;24.72;67.20
21240;BME280;10778;48.962;9.018;2022-10-17T10:34:51;99782.38;;;24.17;69.74
21240;BME280;10778;48.962;9.018;2022-10-17T10:37:20;99774.25;;;24.31;69.37
21240;BME280;10778;48.962;9.018;2022-10-17T10:39:50;99772.09;;;24.53;67.55
21240;BME280;10778;48.962;9.018;2022-10-17T10:42:36;99776.53;;;24.40;68.54
21240;BME280;10778;48.962;9.018;2022-10-17T10:45:22;99776.47;;;24.47;68.06
21240;BME280;10778;48.962;9.018;2022-10-17T10:47:55;99775.22;;;24.50;67.71
21240;BME280;10778;48.962;9.018;2022-10-17T10:50:31;99779.59;;;24.37;67.59
21240;BME280;10778;48.962;9.018;2022-10-17T10:53:28;99773.78;;;24.47;71.58
21240;BME280;10778;48.962;9.018;2022-10-17T10:58:37;99776.69;;;24.46;72.72
21240;BME280;10778;48.962;9.018;2022-10-17T11:01:11;99777.97;;;24.36;73.15
21240;BME280;10778;48.962;9.018;2022-10-17T11:06:28;99774.47;;;24.36;72.90
21240;BME280;10778;48.962;9.018;2022-10-17T11:09:04;99774.28;;;24.24;71.06
21240;BME280;10778;48.962;9.018;2022-10-17T11:11:33;99774.63;;;24.41;69.90
21240;BME280;10778;48.962;9.018;2022-10-17T11:16:56;99775.09;;;24.31;70.52
21240;BME280;10778;48.962;9.018;2022-10-17T11:19:34;99778.84;;;24.23;71.45
21240;BME280;10778;48.962;9.018;2022-10-17T11:22:17;99779.47;;;24.05;69.86
21240;BME280;10778;48.962;9.018;2022-10-17T11:27:15;99771.75;;;24.42;69.71
21240;BME280;10778;48.962;9.018;2022-10-17T11:29:41;99765.06;;;24.52;68.72
21240;BME280;10778;48.962;9.018;2022-10-17T11:32:23;99766.66;;;24.66;67.78
21240;BME280;10778;48.962;9.018;2022-10-17T11:34:55;99766.41;;;24.81;66.95
21240;BME280;10778;48.962;9.018;2022-10-17T11:37:37;99764.13;;;24.33;71.50
21240;BME280;10778;48.962;9.018;2022-10-17T11:40:27;99758.66;;;24.53;68.37
21240;BME280;10778;48.962;9.018;2022-10-17T11:43:24;99774.09;;;24.78;66.58
21240;BME280;10778;48.962;9.018;2022-10-17T11:46:00;99778.09;;;24.55;67.69
21240;BME280;10778;48.962;9.018;2022-10-17T11:48:36;99769.84;;;24.50;68.70
21240;BME280;10778;48.962;9.018;2022-10-17T11:51:10;99773.25;;;24.32;69.42
21240;BME280;10778;48.962;9.018;2022-10-17T11:54:10;99784.38;;;24.35;70.38
21240;BME280;10778;48.962;9.018;2022-10-17T11:56:53;99777.34;;;24.34;67.69
21240;BME280;10778;48.962;9.018;2022-10-17T12:02:51;99768.53;;;24.66;68.19
21240;BME280;10778;48.962;9.018;2022-10-17T12:07:51;99782.28;;;24.96;68.31
21240;BME280;10778;48.962;9.018;2022-10-17T12:15:56;99778.66;;;24.64;67.06
21240;BME280;10778;48.962;9.018;2022-10-17T12:18:24;99775.28;;;24.89;66.56
21240;BME280;10778;48.962;9.018;2022-10-17T12:20:56;99779.59;;;24.96;67.60
21240;BME280;10778;48.962;9.018;2022-10-17T12:23:26;99777.72;;;24.45;67.08
21240;BME280;10778;48.962;9.018;2022-10-17T12:25:53;99776.34;;;24.81;66.49
21240;BME280;10778;48.962;9.018;2022-10-17T12:28:29;99775.69;;;24.40;68.19
21240;BME280;10778;48.962;9.018;2022-10-17T12:30:57;99777.28;;;24.54;67.31
21240;BME280;10778;48.962;9.018;2022-10-17T12:59:54;99773.41;;;24.37;58.88
21240;BME280;10778;48.962;9.018;2022-10-17T13:02:24;99779.00;;;24.35;59.59
21240;BME280;10778;48.962;9.018;2022-10-17T13:05:03;99783.53;;;24.48;59.98
21240;BME280;10778;48.962;9.018;2022-10-17T13:07:32;99780.97;;;24.67;59.10
21240;BME280;10778;48.962;9.018;2022-10-17T13:09:59;99786.22;;;24.41;60.91
21240;BME280;10778;48.962;9.018;2022-10-17T13:12:33;99790.03;;;24.07;59.33
21240;BME280;10778;48.962;9.018;2022-10-17T13:15:03;99786.28;;;24.01;58.57
21240;BME280;10778;48.962;9.018;2022-10-17T13:17:31;99788.97;;;24.21;60.65
21240;BME280;10778;48.962;9.018;2022-10-17T13:19:57;99784.19;;;24.30;60.16
21240;BME280;10778;48.962;9.018;2022-10-17T13:22:27;99791.47;;;24.23;60.66
21240;BME280;10778;48.962;9.018;2022-10-17T13:27:33;99796.03;;;24.15;61.78
21240;BME280;10778;48.962;9.018;2022-10-17T13:30:16;99797.47;;;23.98;62.01
21240;BME280;10778;48.962;9.018;2022-10-17T13:32:45;99797.25;;;24.20;61.47
21240;BME280;10778;48.962;9.018;2022-10-17T13:35:14;99796.03;;;24.15;61.42
21240;BME280;10778;48.962;9.018;2022-10-17T13:37:44;99790.97;;;24.39;61.40
21240;BME280;10778;48.962;9.018;2022-10-17T13:40:16;99797.44;;;24.32;60.02
21240;BME280;10778;48.962;9.018;2022-10-17T13:42:42;99793.00;;;24.57;59.18
21240;BME280;10778;48.962;9.018;2022-10-17T13:45:35;99798.94;;;24.07;58.80
21240;BME280;10778;48.962;9.018;2022-10-17T13:48:05;99801.63;;;23.87;58.05
21240;BME280;10778;48.962;9.018;2022-10-17T13:50:40;99807.84;;;23.81;58.62
21240;BME280;10778;48.962;9.018;2022-10-17T13:55:57;99815.19;;;23.25;59.78
21240;BME280;10778;48.962;9.018;2022-10-17T13:58:24;99815.19;;;23.11;59.10
21240;BME280;10778;48.962;9.018;2022-10-17T14:00:51;99810.97;;;22.88;60.29
21240;BME280;10778;48.962;9.018;2022-10-17T14:03:19;99815.53;;;22.88;60.16
21240;BME280;10778;48.962;9.018;2022-10-17T14:06:20;99808.13;;;22.90;60.95
21240;BME280;10778;48.962;9.018;2022-10-17T14:08:57;99810.44;;;23.07;59.04
21240;BME280;10778;48.962;9.018;2022-10-17T14:13:55;99806.88;;;22.99;60.54
21240;BME280;10778;48.962;9.018;2022-10-17T14:16:24;99812.63;;;22.90;60.69
21240;BME280;10778;48.962;9.018;2022-10-17T14:18:52;99811.66;;;23.04;61.51
21240;BME280;10778;48.962;9.018;2022-10-17T14:21:24;99801.81;;;23.32;61.05
21240;BME280;10778;48.962;9.018;2022-10-17T14:24:06;99803.06;;;23.49;59.41
21240;BME280;10778;48.962;9.018;2022-10-17T14:26:46;99798.53;;;23.70;60.09
21240;BME280;10778;48.962;9.018;2022-10-17T14:29:27;99808.47;;;23.76;60.12
21240;BME280;10778;48.962;9.018;2022-10-17T14:31:59;99807.38;;;24.18;57.34
21240;BME280;10778;48.962;9.018;2022-10-17T14:34:45;99799.88;;;24.40;59.54
21240;BME280;10778;48.962;9.018;2022-10-17T14:37:33;99801.25;;;24.56;57.56
21240;BME280;10778;48.962;9.018;2022-10-17T14:40:03;99788.19;;;24.66;56.93
21240;BME280;10778;48.962;9.018;2022-10-17T14:42:29;99794.78;;;24.70;58.76
21240;BME280;10778;48.962;9.018;2022-10-17T14:45:04;99796.31;;;24.53;60.64
21240;BME280;10778;48.962;9.018;2022-10-17T14:47:31;99807.78;;;24.35;60.66
21240;BME280;10778;48.962;9.018;2022-10-17T14:52:34;99806.75;;;24.29;61.27
21240;BME280;10778;48.962;9.018;2022-10-17T14:55:22;99807.63;;;24.09;62.00
21240;BME280;10778;48.962;9.018;2022-10-17T14:57:48;99810.53;;;23.67;62.11
21240;BME280;10778;48.962;9.018;2022-10-17T15:00:16;99819.63;;;23.53;63.84
21240;BME280;10778;48.962;9.018;2022-10-17T15:02:43;99815.47;;;23.37;63.45
21240;BME280;10778;48.962;9.018;2022-10-17T15:05:10;99821.19;;;23.13;64.73
21240;BME280;10778;48.962;9.018;2022-10-17T15:07:36;99816.81;;;22.99;64.45
21240;BME280;10778;48.962;9.018;2022-10-17T15:10:03;99815.38;;;23.10;65.31
21240;BME280;10778;48.962;9.018;2022-10-17T15:12:29;99825.22;;;22.82;66.21
21240;BME280;10778;48.962;9.018;2022-10-17T15:14:56;99828.72;;;22.83;66.63
21240;BME280;10778;48.962;9.018;2022-10-17T15:17:28;99826.41;;;22.73;66.63
21240;BME280;10778;48.962;9.018;2022-10-17T15:19:56;99829.97;;;22.87;66.06
21240;BME280;10778;48.962;9.018;2022-10-17T15:22:23;99825.59;;;22.72;66.87